sensor_id;sensor_type;location;lat;lon;timestamp;P1;durP1;ratioP1;P2;durP2;ratioP2
72286;SDS011;60221;45.696;16.076;2022-11-20T00:01:14;12.90;;;4.97;;
72286;SDS011;60221;45.696;16.076;2022-11-20T00:03:44;10.28;;;3.58;;
72286;SDS011;60221;45.696;16.076;2022-11-20T00:06:12;9.33;;;3.33;;
72286;SDS011;60221;45.696;16.076;2022-11-20T00:08:42;11.80;;;3.95;;
72286;SDS011;60221;45.696;16.076;2022-11-20T00:11:10;12.37;;;5.28;;
72286;SDS011;60221;45.696;16.076;2022-11-20T00:13:40;12.00;;;5.43;;
72286;SDS011;60221;45.696;16.076;2022-11-20T00:16:08;12.25;;;4.47;;
72286;SDS011;60221;45.696;16.076;2022-11-20T00:18:37;10.13;;;3.45;;
72286;SDS011;60221;45.696;16.076;2022-11-20T00:21:04;11.18;;;4.37;;
72286;SDS011;60221;45.696;16.076;2022-11-20T00:23:34;9.63;;;3.17;;
72286;SDS011;60221;45.696;16.076;2022-11-20T00:26:03;12.87;;;4.90;;
72286;SDS011;60221;45.696;16.076;2022-11-20T00:28:36;13.30;;;4.37;;
72286;SDS011;60221;45.696;16.076;2022-11-20T00:31:06;10.68;;;3.77;;
72286;SDS011;60221;45.696;16.076;2022-11-20T00:33:41;9.00;;;3.17;;
72286;SDS011;60221;45.696;16.076;2022-11-20T00:36:13;8.90;;;2.87;;
72286;SDS011;60221;45.696;16.076;2022-11-20T00:38:39;11.97;;;3.95;;
72286;SDS011;60221;45.696;16.076;2022-11-20T00:41:07;8.13;;;2.40;;
72286;SDS011;60221;45.696;16.076;2022-11-20T00:43:36;11.45;;;3.77;;
72286;SDS011;60221;45.696;16.076;2022-11-20T00:46:12;10.70;;;3.83;;
72286;SDS011;60221;45.696;16.076;2022-11-20T00:48:40;13.88;;;4.40;;
72286;SDS011;60221;45.696;16.076;2022-11-20T00:51:07;11.03;;;3.70;;
72286;SDS011;60221;45.696;16.076;2022-11-20T00:53:37;9.58;;;2.72;;
72286;SDS011;60221;45.696;16.076;2022-11-20T00:56:04;9.38;;;3.10;;
72286;SDS011;60221;45.696;16.076;2022-11-20T00:58:35;9.33;;;2.77;;
72286;SDS011;60221;45.696;16.076;2022-11-20T01:01:08;11.20;;;3.70;;
72286;SDS011;60221;45.696;16.076;2022-11-20T01:03:41;8.03;;;2.72;;
72286;SDS011;60221;45.696;16.076;2022-11-20T01:06:18;7.95;;;2.62;;
72286;SDS011;60221;45.696;16.076;2022-11-20T01:08:45;8.43;;;2.85;;
72286;SDS011;60221;45.696;16.076;2022-11-20T01:11:17;10.47;;;3.53;;
72286;SDS011;60221;45.696;16.076;2022-11-20T01:13:47;10.23;;;3.72;;
72286;SDS011;60221;45.696;16.076;2022-11-20T01:16:18;10.35;;;4.00;;
72286;SDS011;60221;45.696;16.076;2022-11-20T01:18:49;10.53;;;3.52;;
72286;SDS011;60221;45.696;16.076;2022-11-20T01:21:22;9.70;;;3.58;;
72286;SDS011;60221;45.696;16.076;2022-11-20T01:23:52;7.37;;;2.83;;
72286;SDS011;60221;45.696;16.076;2022-11-20T01:26:20;8.58;;;3.50;;
72286;SDS011;60221;45.696;16.076;2022-11-20T01:28:50;9.55;;;3.60;;
72286;SDS011;60221;45.696;16.076;2022-11-20T01:31:18;9.10;;;3.08;;
72286;SDS011;60221;45.696;16.076;2022-11-20T01:33:48;7.42;;;2.77;;
72286;SDS011;60221;45.696;16.076;2022-11-20T01:36:18;9.03;;;2.70;;
72286;SDS011;60221;45.696;16.076;2022-11-20T01:38:47;9.90;;;3.55;;
72286;SDS011;60221;45.696;16.076;2022-11-20T01:41:19;7.50;;;2.12;;
72286;SDS011;60221;45.696;16.076;2022-11-20T01:44:05;8.58;;;2.60;;
72286;SDS011;60221;45.696;16.076;2022-11-20T01:46:32;8.03;;;2.58;;
72286;SDS011;60221;45.696;16.076;2022-11-20T01:49:10;9.10;;;3.50;;
72286;SDS011;60221;45.696;16.076;2022-11-20T01:51:50;8.95;;;3.40;;
72286;SDS011;60221;45.696;16.076;2022-11-20T01:54:40;6.12;;;1.70;;
72286;SDS011;60221;45.696;16.076;2022-11-20T01:57:13;9.98;;;3.40;;
72286;SDS011;60221;45.696;16.076;2022-11-20T01:59:44;9.40;;;3.80;;
72286;SDS011;60221;45.696;16.076;2022-11-20T02:02:15;10.57;;;3.50;;
72286;SDS011;60221;45.696;16.076;2022-11-20T02:04:41;9.18;;;3.55;;
72286;SDS011;60221;45.696;16.076;2022-11-20T02:07:08;5.78;;;1.80;;
72286;SDS011;60221;45.696;16.076;2022-11-20T02:09:34;8.28;;;2.70;;
72286;SDS011;60221;45.696;16.076;2022-11-20T02:12:01;5.77;;;1.20;;
72286;SDS011;60221;45.696;16.076;2022-11-20T02:14:28;8.63;;;3.12;;
72286;SDS011;60221;45.696;16.076;2022-11-20T02:16:55;8.60;;;3.10;;
72286;SDS011;60221;45.696;16.076;2022-11-20T02:24:36;6.57;;;1.60;;
72286;SDS011;60221;45.696;16.076;2022-11-20T02:27:04;5.33;;;1.60;;
72286;SDS011;60221;45.696;16.076;2022-11-20T02:29:53;7.47;;;2.08;;
72286;SDS011;60221;45.696;16.076;2022-11-20T02:36:00;7.25;;;2.62;;
72286;SDS011;60221;45.696;16.076;2022-11-20T02:37:51;5.63;;;1.47;;
72286;SDS011;60221;45.696;16.076;2022-11-20T02:40:20;7.08;;;1.77;;
72286;SDS011;60221;45.696;16.076;2022-11-20T02:42:47;6.50;;;1.75;;
72286;SDS011;60221;45.696;16.076;2022-11-20T02:45:14;6.90;;;1.80;;
72286;SDS011;60221;45.696;16.076;2022-11-20T02:47:40;5.40;;;1.35;;
72286;SDS011;60221;45.696;16.076;2022-11-20T02:50:06;7.67;;;1.70;;
72286;SDS011;60221;45.696;16.076;2022-11-20T02:52:33;5.95;;;1.70;;
72286;SDS011;60221;45.696;16.076;2022-11-20T02:54:59;5.45;;;1.42;;
72286;SDS011;60221;45.696;16.076;2022-11-20T02:57:26;3.73;;;0.53;;
72286;SDS011;60221;45.696;16.076;2022-11-20T02:59:52;4.12;;;0.93;;
72286;SDS011;60221;45.696;16.076;2022-11-20T03:02:18;4.60;;;1.02;;
72286;SDS011;60221;45.696;16.076;2022-11-20T03:04:44;6.20;;;2.00;;
72286;SDS011;60221;45.696;16.076;2022-11-20T03:07:10;4.37;;;1.25;;
72286;SDS011;60221;45.696;16.076;2022-11-20T03:09:36;5.60;;;1.60;;
72286;SDS011;60221;45.696;16.076;2022-11-20T03:12:02;4.07;;;1.00;;
72286;SDS011;60221;45.696;16.076;2022-11-20T03:14:29;6.15;;;1.57;;
72286;SDS011;60221;45.696;16.076;2022-11-20T03:16:55;6.00;;;1.25;;
72286;SDS011;60221;45.696;16.076;2022-11-20T03:19:22;4.53;;;0.97;;
72286;SDS011;60221;45.696;16.076;2022-11-20T03:21:49;5.92;;;1.30;;
72286;SDS011;60221;45.696;16.076;2022-11-20T03:24:15;6.33;;;1.40;;
72286;SDS011;60221;45.696;16.076;2022-11-20T03:26:41;4.17;;;0.90;;
72286;SDS011;60221;45.696;16.076;2022-11-20T03:29:07;5.90;;;1.30;;
72286;SDS011;60221;45.696;16.076;2022-11-20T03:31:34;5.55;;;1.45;;
72286;SDS011;60221;45.696;16.076;2022-11-20T03:34:06;5.30;;;1.45;;
72286;SDS011;60221;45.696;16.076;2022-11-20T03:36:34;4.80;;;1.30;;
72286;SDS011;60221;45.696;16.076;2022-11-20T03:39:02;6.10;;;1.05;;
72286;SDS011;60221;45.696;16.076;2022-11-20T03:41:30;5.33;;;1.50;;
72286;SDS011;60221;45.696;16.076;2022-11-20T03:44:00;4.53;;;1.15;;
72286;SDS011;60221;45.696;16.076;2022-11-20T03:46:29;5.60;;;1.50;;
72286;SDS011;60221;45.696;16.076;2022-11-20T03:48:56;5.92;;;1.57;;
72286;SDS011;60221;45.696;16.076;2022-11-20T03:51:23;7.53;;;2.10;;
72286;SDS011;60221;45.696;16.076;2022-11-20T03:53:56;5.03;;;1.10;;
72286;SDS011;60221;45.696;16.076;2022-11-20T03:56:26;5.92;;;1.40;;
72286;SDS011;60221;45.696;16.076;2022-11-20T03:58:55;5.87;;;1.60;;
72286;SDS011;60221;45.696;16.076;2022-11-20T04:01:24;4.70;;;1.35;;
72286;SDS011;60221;45.696;16.076;2022-11-20T04:03:54;5.53;;;1.00;;
72286;SDS011;60221;45.696;16.076;2022-11-20T04:06:23;6.07;;;1.40;;
72286;SDS011;60221;45.696;16.076;2022-11-20T04:08:56;5.85;;;1.42;;
72286;SDS011;60221;45.696;16.076;2022-11-20T04:13:56;4.00;;;0.60;;
72286;SDS011;60221;45.696;16.076;2022-11-20T04:16:26;5.15;;;1.05;;
72286;SDS011;60221;45.696;16.076;2022-11-20T04:18:56;5.57;;;0.67;;
72286;SDS011;60221;45.696;16.076;2022-11-20T04:21:26;3.90;;;0.72;;
72286;SDS011;60221;45.696;16.076;2022-11-20T04:23:54;3.05;;;0.50;;
72286;SDS011;60221;45.696;16.076;2022-11-20T04:26:23;5.25;;;0.68;;
72286;SDS011;60221;45.696;16.076;2022-11-20T04:28:51;3.95;;;0.78;;
72286;SDS011;60221;45.696;16.076;2022-11-20T04:31:20;4.23;;;0.60;;
72286;SDS011;60221;45.696;16.076;2022-11-20T04:33:51;4.10;;;0.80;;
72286;SDS011;60221;45.696;16.076;2022-11-20T04:36:23;4.60;;;0.62;;
72286;SDS011;60221;45.696;16.076;2022-11-20T04:38:56;4.92;;;1.02;;
72286;SDS011;60221;45.696;16.076;2022-11-20T04:41:22;3.72;;;0.50;;
72286;SDS011;60221;45.696;16.076;2022-11-20T04:43:53;4.47;;;0.70;;
72286;SDS011;60221;45.696;16.076;2022-11-20T04:46:25;3.22;;;0.42;;
72286;SDS011;60221;45.696;16.076;2022-11-20T04:48:52;3.40;;;0.50;;
72286;SDS011;60221;45.696;16.076;2022-11-20T04:51:19;3.30;;;0.30;;
72286;SDS011;60221;45.696;16.076;2022-11-20T04:53:45;3.25;;;0.30;;
72286;SDS011;60221;45.696;16.076;2022-11-20T04:56:12;2.47;;;0.30;;
72286;SDS011;60221;45.696;16.076;2022-11-20T04:58:38;2.80;;;0.37;;
72286;SDS011;60221;45.696;16.076;2022-11-20T05:01:10;3.22;;;0.37;;
72286;SDS011;60221;45.696;16.076;2022-11-20T05:03:42;2.17;;;0.20;;
72286;SDS011;60221;45.696;16.076;2022-11-20T05:06:11;4.20;;;0.20;;
72286;SDS011;60221;45.696;16.076;2022-11-20T05:08:39;4.53;;;0.30;;
72286;SDS011;60221;45.696;16.076;2022-11-20T05:11:10;2.47;;;0.25;;
72286;SDS011;60221;45.696;16.076;2022-11-20T05:13:43;4.78;;;0.30;;
72286;SDS011;60221;45.696;16.076;2022-11-20T05:16:17;2.85;;;0.30;;
72286;SDS011;60221;45.696;16.076;2022-11-20T05:18:43;2.92;;;0.30;;
72286;SDS011;60221;45.696;16.076;2022-11-20T05:21:11;3.13;;;0.30;;
72286;SDS011;60221;45.696;16.076;2022-11-20T05:23:39;3.17;;;0.47;;
72286;SDS011;60221;45.696;16.076;2022-11-20T05:26:07;2.95;;;0.35;;
72286;SDS011;60221;45.696;16.076;2022-11-20T05:28:36;3.27;;;0.30;;
72286;SDS011;60221;45.696;16.076;2022-11-20T05:31:09;2.23;;;0.20;;
72286;SDS011;60221;45.696;16.076;2022-11-20T05:33:40;2.50;;;0.20;;
72286;SDS011;60221;45.696;16.076;2022-11-20T05:36:08;1.70;;;0.15;;
72286;SDS011;60221;45.696;16.076;2022-11-20T05:38:36;2.20;;;0.10;;
72286;SDS011;60221;45.696;16.076;2022-11-20T05:41:14;2.00;;;0.20;;
72286;SDS011;60221;45.696;16.076;2022-11-20T05:43:41;1.92;;;0.10;;
72286;SDS011;60221;45.696;16.076;2022-11-20T05:46:10;3.60;;;0.30;;
72286;SDS011;60221;45.696;16.076;2022-11-20T05:48:39;3.20;;;0.40;;
72286;SDS011;60221;45.696;16.076;2022-11-20T05:51:09;3.05;;;0.30;;
72286;SDS011;60221;45.696;16.076;2022-11-20T05:53:38;2.73;;;0.30;;
72286;SDS011;60221;45.696;16.076;2022-11-20T05:56:07;5.03;;;0.70;;
72286;SDS011;60221;45.696;16.076;2022-11-20T05:58:37;4.47;;;0.45;;
72286;SDS011;60221;45.696;16.076;2022-11-20T06:01:05;3.85;;;0.50;;
72286;SDS011;60221;45.696;16.076;2022-11-20T06:03:35;4.37;;;0.60;;
72286;SDS011;60221;45.696;16.076;2022-11-20T06:06:01;5.97;;;0.90;;
72286;SDS011;60221;45.696;16.076;2022-11-20T06:08:29;7.30;;;2.12;;
72286;SDS011;60221;45.696;16.076;2022-11-20T06:10:56;14.53;;;5.22;;
72286;SDS011;60221;45.696;16.076;2022-11-20T06:13:22;8.03;;;2.30;;
72286;SDS011;60221;45.696;16.076;2022-11-20T06:15:50;5.67;;;1.90;;
72286;SDS011;60221;45.696;16.076;2022-11-20T06:18:18;4.80;;;1.40;;
72286;SDS011;60221;45.696;16.076;2022-11-20T06:20:45;7.45;;;2.77;;
72286;SDS011;60221;45.696;16.076;2022-11-20T06:23:12;9.85;;;3.67;;
72286;SDS011;60221;45.696;16.076;2022-11-20T06:25:39;9.43;;;3.45;;
72286;SDS011;60221;45.696;16.076;2022-11-20T06:28:07;16.67;;;6.80;;
72286;SDS011;60221;45.696;16.076;2022-11-20T06:30:35;26.23;;;9.10;;
72286;SDS011;60221;45.696;16.076;2022-11-20T06:33:01;18.98;;;5.97;;
72286;SDS011;60221;45.696;16.076;2022-11-20T06:35:28;13.60;;;3.98;;
72286;SDS011;60221;45.696;16.076;2022-11-20T06:37:55;7.60;;;1.85;;
72286;SDS011;60221;45.696;16.076;2022-11-20T06:40:22;27.97;;;8.13;;
72286;SDS011;60221;45.696;16.076;2022-11-20T06:42:48;13.20;;;3.85;;
72286;SDS011;60221;45.696;16.076;2022-11-20T06:45:14;13.10;;;4.40;;
72286;SDS011;60221;45.696;16.076;2022-11-20T06:47:40;14.40;;;4.90;;
72286;SDS011;60221;45.696;16.076;2022-11-20T06:50:06;8.65;;;3.47;;
72286;SDS011;60221;45.696;16.076;2022-11-20T06:52:33;10.20;;;3.95;;
72286;SDS011;60221;45.696;16.076;2022-11-20T06:54:59;11.27;;;4.23;;
72286;SDS011;60221;45.696;16.076;2022-11-20T06:57:25;6.62;;;1.87;;
72286;SDS011;60221;45.696;16.076;2022-11-20T06:59:52;7.50;;;3.60;;
72286;SDS011;60221;45.696;16.076;2022-11-20T07:02:18;5.87;;;1.37;;
72286;SDS011;60221;45.696;16.076;2022-11-20T07:04:44;3.95;;;0.80;;
72286;SDS011;60221;45.696;16.076;2022-11-20T07:07:10;6.15;;;1.07;;
72286;SDS011;60221;45.696;16.076;2022-11-20T07:09:36;4.23;;;1.10;;
72286;SDS011;60221;45.696;16.076;2022-11-20T07:12:02;5.45;;;1.27;;
72286;SDS011;60221;45.696;16.076;2022-11-20T07:14:28;6.50;;;1.33;;
72286;SDS011;60221;45.696;16.076;2022-11-20T07:16:54;5.65;;;1.40;;
72286;SDS011;60221;45.696;16.076;2022-11-20T07:19:20;5.95;;;2.02;;
72286;SDS011;60221;45.696;16.076;2022-11-20T07:21:46;6.60;;;2.00;;
72286;SDS011;60221;45.696;16.076;2022-11-20T07:24:12;6.22;;;1.32;;
72286;SDS011;60221;45.696;16.076;2022-11-20T07:26:38;4.90;;;1.30;;
72286;SDS011;60221;45.696;16.076;2022-11-20T07:29:06;4.65;;;1.00;;
72286;SDS011;60221;45.696;16.076;2022-11-20T07:31:32;5.00;;;0.70;;
72286;SDS011;60221;45.696;16.076;2022-11-20T07:33:58;4.50;;;0.90;;
72286;SDS011;60221;45.696;16.076;2022-11-20T07:36:24;4.72;;;1.42;;
72286;SDS011;60221;45.696;16.076;2022-11-20T07:38:50;5.93;;;1.37;;
72286;SDS011;60221;45.696;16.076;2022-11-20T07:41:16;7.92;;;2.70;;
72286;SDS011;60221;45.696;16.076;2022-11-20T07:43:42;7.83;;;2.72;;
72286;SDS011;60221;45.696;16.076;2022-11-20T07:46:08;9.07;;;3.40;;
72286;SDS011;60221;45.696;16.076;2022-11-20T07:48:34;8.83;;;3.25;;
72286;SDS011;60221;45.696;16.076;2022-11-20T07:51:00;9.33;;;3.50;;
72286;SDS011;60221;45.696;16.076;2022-11-20T07:53:27;7.25;;;2.60;;
72286;SDS011;60221;45.696;16.076;2022-11-20T07:55:53;12.23;;;3.30;;
72286;SDS011;60221;45.696;16.076;2022-11-20T07:58:19;10.10;;;3.50;;
72286;SDS011;60221;45.696;16.076;2022-11-20T08:00:47;8.13;;;2.50;;
72286;SDS011;60221;45.696;16.076;2022-11-20T08:03:13;8.27;;;3.50;;
72286;SDS011;60221;45.696;16.076;2022-11-20T08:05:39;8.38;;;3.27;;
72286;SDS011;60221;45.696;16.076;2022-11-20T08:08:06;13.00;;;4.62;;
72286;SDS011;60221;45.696;16.076;2022-11-20T08:10:33;21.42;;;8.55;;
72286;SDS011;60221;45.696;16.076;2022-11-20T08:12:59;43.17;;;16.90;;
72286;SDS011;60221;45.696;16.076;2022-11-20T08:15:47;45.03;;;14.83;;
72286;SDS011;60221;45.696;16.076;2022-11-20T08:18:18;167.60;;;42.78;;
72286;SDS011;60221;45.696;16.076;2022-11-20T08:20:45;97.00;;;27.30;;
72286;SDS011;60221;45.696;16.076;2022-11-20T08:23:11;39.23;;;11.00;;
72286;SDS011;60221;45.696;16.076;2022-11-20T08:25:38;32.60;;;10.90;;
72286;SDS011;60221;45.696;16.076;2022-11-20T08:28:06;22.25;;;8.90;;
72286;SDS011;60221;45.696;16.076;2022-11-20T08:30:35;16.55;;;4.97;;
72286;SDS011;60221;45.696;16.076;2022-11-20T08:33:06;18.15;;;6.85;;
72286;SDS011;60221;45.696;16.076;2022-11-20T08:35:35;18.87;;;7.10;;
72286;SDS011;60221;45.696;16.076;2022-11-20T08:38:03;21.40;;;7.60;;
72286;SDS011;60221;45.696;16.076;2022-11-20T08:40:31;14.20;;;6.40;;
72286;SDS011;60221;45.696;16.076;2022-11-20T08:42:59;9.35;;;3.85;;
72286;SDS011;60221;45.696;16.076;2022-11-20T08:45:26;14.50;;;5.65;;
72286;SDS011;60221;45.696;16.076;2022-11-20T08:47:52;13.30;;;5.53;;
72286;SDS011;60221;45.696;16.076;2022-11-20T08:50:18;11.25;;;5.50;;
72286;SDS011;60221;45.696;16.076;2022-11-20T08:52:45;17.02;;;9.45;;
72286;SDS011;60221;45.696;16.076;2022-11-20T08:55:11;13.73;;;6.77;;
72286;SDS011;60221;45.696;16.076;2022-11-20T08:57:37;11.78;;;5.22;;
72286;SDS011;60221;45.696;16.076;2022-11-20T09:00:05;12.07;;;5.30;;
72286;SDS011;60221;45.696;16.076;2022-11-20T09:02:36;11.08;;;4.58;;
72286;SDS011;60221;45.696;16.076;2022-11-20T09:05:02;10.30;;;5.10;;
72286;SDS011;60221;45.696;16.076;2022-11-20T09:07:29;11.25;;;4.70;;
72286;SDS011;60221;45.696;16.076;2022-11-20T09:09:55;8.55;;;3.37;;
72286;SDS011;60221;45.696;16.076;2022-11-20T09:12:21;11.40;;;5.10;;
72286;SDS011;60221;45.696;16.076;2022-11-20T09:14:49;10.30;;;4.83;;
72286;SDS011;60221;45.696;16.076;2022-11-20T09:17:15;10.27;;;4.50;;
72286;SDS011;60221;45.696;16.076;2022-11-20T09:19:42;13.03;;;5.67;;
72286;SDS011;60221;45.696;16.076;2022-11-20T09:22:08;10.18;;;4.33;;
72286;SDS011;60221;45.696;16.076;2022-11-20T09:24:34;12.75;;;8.10;;
72286;SDS011;60221;45.696;16.076;2022-11-20T09:27:01;9.23;;;4.53;;
72286;SDS011;60221;45.696;16.076;2022-11-20T09:29:29;12.65;;;6.75;;
72286;SDS011;60221;45.696;16.076;2022-11-20T09:31:55;13.93;;;6.20;;
72286;SDS011;60221;45.696;16.076;2022-11-20T09:34:22;13.87;;;6.30;;
72286;SDS011;60221;45.696;16.076;2022-11-20T09:36:48;8.70;;;4.10;;
72286;SDS011;60221;45.696;16.076;2022-11-20T09:39:14;12.30;;;5.22;;
72286;SDS011;60221;45.696;16.076;2022-11-20T09:55:51;17.05;;;6.95;;
72286;SDS011;60221;45.696;16.076;2022-11-20T10:01:26;8.15;;;3.05;;
72286;SDS011;60221;45.696;16.076;2022-11-20T10:06:55;9.87;;;4.60;;
72286;SDS011;60221;45.696;16.076;2022-11-20T10:09:37;13.08;;;5.28;;
72286;SDS011;60221;45.696;16.076;2022-11-20T10:12:52;14.78;;;7.70;;
72286;SDS011;60221;45.696;16.076;2022-11-20T10:20:52;12.57;;;6.10;;
72286;SDS011;60221;45.696;16.076;2022-11-20T10:26:16;12.80;;;6.30;;
72286;SDS011;60221;45.696;16.076;2022-11-20T10:31:45;20.88;;;9.95;;
72286;SDS011;60221;45.696;16.076;2022-11-20T10:34:29;11.43;;;6.80;;
72286;SDS011;60221;45.696;16.076;2022-11-20T10:37:00;11.75;;;6.90;;
72286;SDS011;60221;45.696;16.076;2022-11-20T10:39:35;10.80;;;5.45;;
72286;SDS011;60221;45.696;16.076;2022-11-20T10:42:26;10.65;;;5.50;;
72286;SDS011;60221;45.696;16.076;2022-11-20T10:45:09;8.68;;;5.15;;
72286;SDS011;60221;45.696;16.076;2022-11-20T10:47:45;9.03;;;6.00;;
72286;SDS011;60221;45.696;16.076;2022-11-20T10:50:13;8.60;;;5.37;;
72286;SDS011;60221;45.696;16.076;2022-11-20T10:52:50;9.45;;;3.87;;
72286;SDS011;60221;45.696;16.076;2022-11-20T10:58:33;9.43;;;5.17;;
72286;SDS011;60221;45.696;16.076;2022-11-20T11:01:29;6.90;;;3.20;;
72286;SDS011;60221;45.696;16.076;2022-11-20T11:03:55;8.65;;;3.12;;
72286;SDS011;60221;45.696;16.076;2022-11-20T11:09:09;8.23;;;4.55;;
72286;SDS011;60221;45.696;16.076;2022-11-20T11:11:48;9.63;;;5.27;;
72286;SDS011;60221;45.696;16.076;2022-11-20T11:14:15;9.25;;;4.65;;
72286;SDS011;60221;45.696;16.076;2022-11-20T11:16:51;8.50;;;4.10;;
72286;SDS011;60221;45.696;16.076;2022-11-20T11:19:21;7.55;;;3.85;;
72286;SDS011;60221;45.696;16.076;2022-11-20T11:21:49;9.78;;;3.80;;
72286;SDS011;60221;45.696;16.076;2022-11-20T11:24:25;17.87;;;10.87;;
72286;SDS011;60221;45.696;16.076;2022-11-20T11:26:55;10.65;;;5.35;;
72286;SDS011;60221;45.696;16.076;2022-11-20T11:29:25;12.80;;;8.13;;
72286;SDS011;60221;45.696;16.076;2022-11-20T11:32:03;7.37;;;4.20;;
72286;SDS011;60221;45.696;16.076;2022-11-20T11:34:39;8.95;;;4.53;;
72286;SDS011;60221;45.696;16.076;2022-11-20T11:37:10;7.50;;;4.17;;
72286;SDS011;60221;45.696;16.076;2022-11-20T11:39:46;9.78;;;6.40;;
72286;SDS011;60221;45.696;16.076;2022-11-20T11:42:16;5.83;;;3.55;;
72286;SDS011;60221;45.696;16.076;2022-11-20T11:44:45;7.15;;;3.20;;
72286;SDS011;60221;45.696;16.076;2022-11-20T11:50:24;7.57;;;2.67;;
72286;SDS011;60221;45.696;16.076;2022-11-20T11:55:42;7.58;;;3.90;;
72286;SDS011;60221;45.696;16.076;2022-11-20T11:58:46;7.85;;;3.52;;
72286;SDS011;60221;45.696;16.076;2022-11-20T12:01:32;8.33;;;3.60;;
72286;SDS011;60221;45.696;16.076;2022-11-20T12:07:20;9.10;;;4.28;;
72286;SDS011;60221;45.696;16.076;2022-11-20T12:09:48;18.00;;;12.20;;
72286;SDS011;60221;45.696;16.076;2022-11-20T12:12:19;9.10;;;5.25;;
72286;SDS011;60221;45.696;16.076;2022-11-20T12:14:50;8.33;;;3.20;;
72286;SDS011;60221;45.696;16.076;2022-11-20T12:17:20;9.50;;;4.33;;
72286;SDS011;60221;45.696;16.076;2022-11-20T12:19:47;8.35;;;4.35;;
72286;SDS011;60221;45.696;16.076;2022-11-20T12:25:22;16.07;;;5.85;;
72286;SDS011;60221;45.696;16.076;2022-11-20T12:30:30;13.50;;;5.80;;
72286;SDS011;60221;45.696;16.076;2022-11-20T12:33:10;12.75;;;6.10;;
72286;SDS011;60221;45.696;16.076;2022-11-20T12:36:06;9.88;;;5.22;;
72286;SDS011;60221;45.696;16.076;2022-11-20T12:38:58;7.90;;;3.87;;
72286;SDS011;60221;45.696;16.076;2022-11-20T12:41:46;9.18;;;4.35;;
72286;SDS011;60221;45.696;16.076;2022-11-20T12:56:24;8.95;;;4.12;;
72286;SDS011;60221;45.696;16.076;2022-11-20T13:01:56;11.40;;;5.00;;
72286;SDS011;60221;45.696;16.076;2022-11-20T13:07:03;8.33;;;4.25;;
72286;SDS011;60221;45.696;16.076;2022-11-20T13:09:40;8.98;;;4.30;;
72286;SDS011;60221;45.696;16.076;2022-11-20T13:14:58;12.40;;;6.10;;
72286;SDS011;60221;45.696;16.076;2022-11-20T13:20:12;13.48;;;6.87;;
72286;SDS011;60221;45.696;16.076;2022-11-20T13:22:51;13.83;;;7.17;;
72286;SDS011;60221;45.696;16.076;2022-11-20T13:25:26;16.90;;;8.23;;
72286;SDS011;60221;45.696;16.076;2022-11-20T13:27:56;13.48;;;7.58;;
72286;SDS011;60221;45.696;16.076;2022-11-20T13:30:36;11.15;;;5.87;;
72286;SDS011;60221;45.696;16.076;2022-11-20T13:33:31;11.93;;;6.92;;
72286;SDS011;60221;45.696;16.076;2022-11-20T13:36:04;11.45;;;6.10;;
72286;SDS011;60221;45.696;16.076;2022-11-20T13:38:43;9.63;;;5.83;;
72286;SDS011;60221;45.696;16.076;2022-11-20T13:46:56;9.60;;;5.42;;
72286;SDS011;60221;45.696;16.076;2022-11-20T13:52:26;12.10;;;6.77;;
72286;SDS011;60221;45.696;16.076;2022-11-20T13:55:13;12.75;;;6.90;;
72286;SDS011;60221;45.696;16.076;2022-11-20T14:01:20;11.12;;;5.40;;
72286;SDS011;60221;45.696;16.076;2022-11-20T14:03:47;11.65;;;4.00;;
72286;SDS011;60221;45.696;16.076;2022-11-20T14:06:15;8.23;;;3.30;;
72286;SDS011;60221;45.696;16.076;2022-11-20T14:08:57;7.90;;;3.17;;
72286;SDS011;60221;45.696;16.076;2022-11-20T14:11:26;6.37;;;3.27;;
72286;SDS011;60221;45.696;16.076;2022-11-20T14:16:44;8.65;;;3.90;;
72286;SDS011;60221;45.696;16.076;2022-11-20T14:21:54;11.18;;;5.12;;
72286;SDS011;60221;45.696;16.076;2022-11-20T14:24:33;11.73;;;6.03;;
72286;SDS011;60221;45.696;16.076;2022-11-20T14:27:00;10.95;;;4.85;;
72286;SDS011;60221;45.696;16.076;2022-11-20T14:29:34;9.53;;;4.20;;
72286;SDS011;60221;45.696;16.076;2022-11-20T14:32:03;10.47;;;5.50;;
72286;SDS011;60221;45.696;16.076;2022-11-20T14:34:31;11.70;;;5.58;;
72286;SDS011;60221;45.696;16.076;2022-11-20T14:37:03;13.28;;;6.80;;
72286;SDS011;60221;45.696;16.076;2022-11-20T14:39:37;10.72;;;5.67;;
72286;SDS011;60221;45.696;16.076;2022-11-20T14:42:14;10.82;;;6.00;;
72286;SDS011;60221;45.696;16.076;2022-11-20T14:44:44;13.20;;;7.00;;
72286;SDS011;60221;45.696;16.076;2022-11-20T14:47:12;14.33;;;6.95;;
72286;SDS011;60221;45.696;16.076;2022-11-20T14:49:42;14.93;;;7.10;;
72286;SDS011;60221;45.696;16.076;2022-11-20T14:52:12;14.20;;;6.70;;
72286;SDS011;60221;45.696;16.076;2022-11-20T14:54:49;14.28;;;7.53;;
72286;SDS011;60221;45.696;16.076;2022-11-20T14:57:21;14.60;;;6.27;;
72286;SDS011;60221;45.696;16.076;2022-11-20T15:02:45;18.23;;;8.55;;
72286;SDS011;60221;45.696;16.076;2022-11-20T15:05:14;19.92;;;9.98;;
72286;SDS011;60221;45.696;16.076;2022-11-20T15:07:44;23.75;;;10.32;;
72286;SDS011;60221;45.696;16.076;2022-11-20T15:10:24;13.97;;;7.07;;
72286;SDS011;60221;45.696;16.076;2022-11-20T15:12:55;17.30;;;9.60;;
72286;SDS011;60221;45.696;16.076;2022-11-20T15:15:30;17.42;;;7.15;;
72286;SDS011;60221;45.696;16.076;2022-11-20T15:18:15;20.57;;;10.25;;
72286;SDS011;60221;45.696;16.076;2022-11-20T15:20:46;17.02;;;7.47;;
72286;SDS011;60221;45.696;16.076;2022-11-20T15:23:15;21.90;;;8.60;;
72286;SDS011;60221;45.696;16.076;2022-11-20T15:25:44;22.42;;;10.00;;
72286;SDS011;60221;45.696;16.076;2022-11-20T15:28:16;22.35;;;10.50;;
72286;SDS011;60221;45.696;16.076;2022-11-20T15:30:47;26.52;;;10.88;;
72286;SDS011;60221;45.696;16.076;2022-11-20T15:33:15;22.75;;;9.38;;
72286;SDS011;60221;45.696;16.076;2022-11-20T15:35:43;15.33;;;7.60;;
72286;SDS011;60221;45.696;16.076;2022-11-20T15:38:10;19.67;;;9.40;;
72286;SDS011;60221;45.696;16.076;2022-11-20T15:40:36;19.00;;;9.68;;
72286;SDS011;60221;45.696;16.076;2022-11-20T15:43:02;14.58;;;6.83;;
72286;SDS011;60221;45.696;16.076;2022-11-20T15:45:44;17.10;;;9.03;;
72286;SDS011;60221;45.696;16.076;2022-11-20T15:48:16;19.52;;;8.45;;
72286;SDS011;60221;45.696;16.076;2022-11-20T15:53:24;15.70;;;6.87;;
72286;SDS011;60221;45.696;16.076;2022-11-20T15:55:50;15.27;;;7.00;;
72286;SDS011;60221;45.696;16.076;2022-11-20T15:58:16;15.45;;;7.42;;
72286;SDS011;60221;45.696;16.076;2022-11-20T16:00:42;14.63;;;7.87;;
72286;SDS011;60221;45.696;16.076;2022-11-20T16:03:13;12.78;;;6.22;;
72286;SDS011;60221;45.696;16.076;2022-11-20T16:05:41;10.15;;;5.50;;
72286;SDS011;60221;45.696;16.076;2022-11-20T16:08:07;10.08;;;4.53;;
72286;SDS011;60221;45.696;16.076;2022-11-20T16:10:33;11.30;;;4.90;;
72286;SDS011;60221;45.696;16.076;2022-11-20T16:13:00;10.13;;;4.83;;
72286;SDS011;60221;45.696;16.076;2022-11-20T16:15:50;11.50;;;5.12;;
72286;SDS011;60221;45.696;16.076;2022-11-20T16:18:20;14.10;;;6.55;;
72286;SDS011;60221;45.696;16.076;2022-11-20T16:20:48;13.05;;;5.95;;
72286;SDS011;60221;45.696;16.076;2022-11-20T16:23:17;11.78;;;5.78;;
72286;SDS011;60221;45.696;16.076;2022-11-20T16:25:45;10.73;;;5.47;;
72286;SDS011;60221;45.696;16.076;2022-11-20T16:28:14;11.65;;;5.30;;
72286;SDS011;60221;45.696;16.076;2022-11-20T16:30:41;13.83;;;5.65;;
72286;SDS011;60221;45.696;16.076;2022-11-20T16:33:10;12.85;;;5.45;;
72286;SDS011;60221;45.696;16.076;2022-11-20T16:35:40;11.53;;;5.27;;